createdAt,value
2022-09-15T00:00:31.291Z,19.64
2022-09-15T00:02:58.279Z,19.65
2022-09-15T00:05:25.346Z,19.65
2022-09-15T00:07:52.265Z,19.63
2022-09-15T00:10:19.428Z,19.54
2022-09-15T00:12:46.378Z,19.48
2022-09-15T00:15:15.060Z,19.41
2022-09-15T00:17:43.566Z,19.38
2022-09-15T00:20:11.089Z,19.28
2022-09-15T00:22:38.375Z,19.21
2022-09-15T00:25:06.594Z,19.09
2022-09-15T00:27:34.802Z,18.98
2022-09-15T00:30:02.137Z,18.84
2022-09-15T00:32:29.932Z,18.78
2022-09-15T00:34:57.028Z,18.73
2022-09-15T00:37:24.023Z,18.68
2022-09-15T00:39:50.997Z,18.62
2022-09-15T00:42:21.064Z,18.52
2022-09-15T00:44:57.494Z,18.52
2022-09-15T00:47:29.075Z,18.55
2022-09-15T00:50:02.303Z,18.58
2022-09-15T00:52:50.317Z,18.63
2022-09-15T00:55:29.474Z,18.64
2022-09-15T00:58:02.185Z,18.56
2022-09-15T01:00:29.796Z,18.50
2022-09-15T01:02:57.454Z,18.42
2022-09-15T01:05:30.302Z,18.32
2022-09-15T01:08:06.124Z,18.10
2022-09-15T01:10:36.445Z,18.01
2022-09-15T01:13:08.505Z,17.98
2022-09-15T01:19:39.287Z,17.92
2022-09-15T01:22:29.181Z,17.91
2022-09-15T01:25:42.376Z,17.92
2022-09-15T01:28:49.456Z,17.89
2022-09-15T01:31:23.970Z,17.89
2022-09-15T01:34:14.991Z,17.93
2022-09-15T01:36:55.938Z,17.99
2022-09-15T01:39:27.909Z,17.89
2022-09-15T01:42:01.934Z,17.91
2022-09-15T01:44:34.137Z,17.98
2022-09-15T01:47:06.455Z,18.04
2022-09-15T01:49:57.081Z,18.02
2022-09-15T01:52:24.941Z,18.01
2022-09-15T01:54:59.244Z,18.04
2022-09-15T01:57:27.720Z,18.08
2022-09-15T01:59:56.433Z,18.12
2022-09-15T02:02:33.595Z,18.11
2022-09-15T02:05:25.927Z,18.00
2022-09-15T02:08:36.714Z,17.82
2022-09-15T02:11:12.218Z,17.78
2022-09-15T02:14:11.500Z,17.85
2022-09-15T02:16:42.465Z,17.92
2022-09-15T02:19:17.163Z,18.01
2022-09-15T02:22:28.565Z,18.12
2022-09-15T02:25:06.544Z,18.19
2022-09-15T02:27:41.809Z,18.28
2022-09-15T02:30:12.289Z,18.33
2022-09-15T02:32:47.430Z,18.34
2022-09-15T02:35:16.134Z,18.33
2022-09-15T02:37:43.532Z,18.33
2022-09-15T02:40:11.456Z,18.31
2022-09-15T02:42:39.412Z,18.31
2022-09-15T02:45:07.468Z,18.36
2022-09-15T02:47:34.526Z,18.37
2022-09-15T02:50:01.490Z,18.36
2022-09-15T02:52:28.437Z,18.36
2022-09-15T02:54:55.397Z,18.33
2022-09-15T02:57:22.295Z,18.32
2022-09-15T03:00:07.746Z,18.37
2022-09-15T03:02:34.839Z,18.37
2022-09-15T03:05:01.883Z,18.39
2022-09-15T03:07:28.875Z,18.40
2022-09-15T03:09:55.870Z,18.37
2022-09-15T03:12:22.793Z,18.32
2022-09-15T03:14:50.546Z,18.28
2022-09-15T03:17:18.209Z,18.23
2022-09-15T03:19:45.560Z,18.18
2022-09-15T03:22:12.590Z,18.13
2022-09-15T03:24:39.702Z,18.09
2022-09-15T03:27:06.671Z,18.04
2022-09-15T03:29:33.661Z,18.00
2022-09-15T03:32:00.684Z,18.02
2022-09-15T03:34:27.712Z,18.07
2022-09-15T03:36:54.744Z,18.07
2022-09-15T03:39:21.706Z,18.07
2022-09-15T03:41:48.576Z,18.09
2022-09-15T03:44:15.674Z,18.12
2022-09-15T03:46:42.676Z,18.13
2022-09-15T03:49:09.596Z,18.04
2022-09-15T03:51:36.563Z,17.98
2022-09-15T03:54:03.696Z,17.93
2022-09-15T03:56:32.852Z,17.89
2022-09-15T03:59:01.786Z,17.89
2022-09-15T04:01:30.653Z,17.85
2022-09-15T04:03:58.609Z,17.72
2022-09-15T04:06:26.417Z,17.52
2022-09-15T04:08:54.479Z,17.44
2022-09-15T04:11:22.814Z,17.38
2022-09-15T04:13:50.089Z,17.33
2022-09-15T04:16:20.218Z,17.32
2022-09-15T04:18:47.248Z,17.29
2022-09-15T04:21:17.257Z,17.26
2022-09-15T04:23:44.858Z,17.20
2022-09-15T04:26:17.575Z,17.18
2022-09-15T04:28:44.447Z,17.16
2022-09-15T04:31:14.943Z,17.19
2022-09-15T04:33:43.298Z,17.23
2022-09-15T04:36:14.086Z,17.31
2022-09-15T04:38:41.463Z,17.39
2022-09-15T04:41:09.294Z,17.53
2022-09-15T04:43:36.719Z,17.63
2022-09-15T04:46:03.851Z,17.73
2022-09-15T04:48:31.704Z,17.82
2022-09-15T04:51:06.836Z,17.97
2022-09-15T04:53:33.966Z,18.06
2022-09-15T04:56:06.081Z,18.13
2022-09-15T04:58:43.667Z,18.21
2022-09-15T05:01:19.824Z,18.30
2022-09-15T05:03:48.192Z,18.37
2022-09-15T05:06:17.983Z,18.48
2022-09-15T05:08:49.539Z,18.57
2022-09-15T05:11:20.916Z,18.65
2022-09-15T05:13:48.528Z,18.75
2022-09-15T05:16:21.804Z,18.79
2022-09-15T05:18:50.329Z,18.81
2022-09-15T05:21:19.634Z,18.80
2022-09-15T05:23:48.848Z,18.78
2022-09-15T05:26:21.041Z,18.80
2022-09-15T05:28:48.715Z,18.83
2022-09-15T05:31:21.363Z,18.94
2022-09-15T05:33:50.022Z,19.01
2022-09-15T05:36:18.847Z,19.03
2022-09-15T05:38:46.102Z,19.10
2022-09-15T05:41:17.067Z,19.24
2022-09-15T05:43:45.346Z,19.39
2022-09-15T05:46:13.409Z,19.48
2022-09-15T05:48:40.416Z,19.53
2022-09-15T05:51:08.749Z,19.59
2022-09-15T05:53:36.347Z,19.66
2022-09-15T05:56:06.775Z,19.72
2022-09-15T05:58:34.518Z,19.76
2022-09-15T06:01:11.661Z,19.83
2022-09-15T06:03:38.663Z,19.89
2022-09-15T06:06:06.733Z,19.98
2022-09-15T06:08:36.535Z,20.09
2022-09-15T06:11:09.790Z,20.18
2022-09-15T06:13:37.482Z,20.30
2022-09-15T06:16:09.732Z,20.42
2022-09-15T06:18:38.083Z,20.51
2022-09-15T06:21:10.471Z,20.59
2022-09-15T06:23:38.128Z,20.64
2022-09-15T06:26:17.049Z,20.68
2022-09-15T06:28:49.680Z,20.77
2022-09-15T06:31:17.340Z,20.89
2022-09-15T06:33:46.281Z,20.96
2022-09-15T06:36:14.555Z,21.03
2022-09-15T06:38:42.197Z,21.10
2022-09-15T06:41:09.973Z,21.22
2022-09-15T06:43:37.198Z,21.29
2022-09-15T06:46:06.406Z,21.35
2022-09-15T06:48:34.243Z,21.43
2022-09-15T06:51:03.785Z,21.54
2022-09-15T06:53:36.589Z,21.60
2022-09-15T06:56:09.416Z,21.67
2022-09-15T06:58:39.096Z,21.76
2022-09-15T07:01:12.424Z,21.85
2022-09-15T07:03:41.852Z,21.94
2022-09-15T07:06:11.009Z,22.00
2022-09-15T07:08:38.480Z,22.02
2022-09-15T07:11:05.718Z,22.10
2022-09-15T07:13:32.767Z,22.20
2022-09-15T07:16:01.796Z,22.28
2022-09-15T07:18:29.023Z,22.31
2022-09-15T07:21:01.302Z,22.38
2022-09-15T07:23:31.189Z,22.55
2022-09-15T07:26:13.336Z,22.51
2022-09-15T07:28:44.751Z,22.58
2022-09-15T07:31:14.779Z,22.67
2022-09-15T07:33:41.848Z,22.80
2022-09-15T07:36:10.189Z,22.89
2022-09-15T07:38:41.582Z,23.08
2022-09-15T07:41:23.199Z,23.06
2022-09-15T07:43:51.828Z,23.11
2022-09-15T07:46:20.693Z,23.24
2022-09-15T07:48:49.754Z,23.34
2022-09-15T07:51:17.394Z,23.51
2022-09-15T07:53:46.167Z,23.66
2022-09-15T07:56:13.798Z,23.64
2022-09-15T07:58:40.880Z,23.69
2022-09-15T08:01:14.925Z,23.79
2022-09-15T08:03:43.131Z,23.90
2022-09-15T08:06:10.843Z,24.05
2022-09-15T08:08:41.746Z,24.16
2022-09-15T08:11:13.065Z,24.31
2022-09-15T08:13:42.377Z,24.51
2022-09-15T08:16:33.312Z,24.71
2022-09-15T08:19:01.122Z,24.93
2022-09-15T08:21:29.807Z,25.09
2022-09-15T08:23:59.110Z,25.25
2022-09-15T08:26:27.283Z,25.39
2022-09-15T08:28:54.754Z,25.64
2022-09-15T08:31:24.634Z,25.62
2022-09-15T08:33:54.438Z,25.83
2022-09-15T08:36:21.886Z,25.95
2022-09-15T08:38:49.140Z,26.09
2022-09-15T08:41:29.900Z,26.30
2022-09-15T08:44:16.778Z,26.29
2022-09-15T08:46:54.476Z,26.45
2022-09-15T08:50:15.657Z,26.62
2022-09-15T08:53:16.874Z,27.06
2022-09-15T08:56:07.088Z,27.00
2022-09-15T08:58:37.953Z,27.18
2022-09-15T09:01:53.134Z,27.42
2022-09-15T09:05:06.992Z,27.53
2022-09-15T09:08:12.572Z,27.77
2022-09-15T09:11:01.966Z,28.00
2022-09-15T09:13:37.748Z,28.21
2022-09-15T09:16:44.465Z,28.61
2022-09-15T09:22:54.830Z,28.83
2022-09-15T09:25:28.513Z,28.83
2022-09-15T09:28:08.422Z,28.78
2022-09-15T09:30:46.798Z,28.90
2022-09-15T09:33:42.834Z,29.16
2022-09-15T09:36:19.694Z,29.33
2022-09-15T09:38:58.424Z,29.50
2022-09-15T09:41:36.903Z,29.81
2022-09-15T09:44:10.513Z,29.82
2022-09-15T09:46:37.654Z,29.85
2022-09-15T09:49:23.609Z,30.05
2022-09-15T09:51:53.880Z,30.35
2022-09-15T09:54:25.247Z,30.64
2022-09-15T09:56:53.894Z,30.98
2022-09-15T09:59:48.207Z,31.18
2022-09-15T10:02:26.939Z,31.26
2022-09-15T10:05:24.081Z,31.33
2022-09-15T10:07:51.247Z,31.38
2022-09-15T10:10:24.031Z,31.43
2022-09-15T10:12:56.473Z,31.50
2022-09-15T10:15:32.332Z,31.65
2022-09-15T10:17:59.611Z,31.96
2022-09-15T10:20:49.546Z,32.22
2022-09-15T10:23:34.657Z,32.16
2022-09-15T10:26:37.750Z,31.96
2022-09-15T10:29:14.135Z,31.97
2022-09-15T10:31:41.932Z,32.02
2022-09-15T10:34:30.724Z,32.23
2022-09-15T10:37:15.820Z,31.91
2022-09-15T10:39:56.942Z,31.92
2022-09-15T10:42:51.350Z,32.15
2022-09-15T10:45:43.081Z,32.33
2022-09-15T10:49:01.887Z,32.46
2022-09-15T10:51:53.948Z,32.69
2022-09-15T10:54:58.271Z,32.92
2022-09-15T11:04:30.905Z,32.62
2022-09-15T11:07:41.360Z,32.47
2022-09-15T11:10:56.804Z,32.45
2022-09-15T11:13:40.675Z,32.30
2022-09-15T11:16:49.246Z,32.24
2022-09-15T11:19:41.138Z,32.25
2022-09-15T11:22:22.604Z,32.44
2022-09-15T11:25:00.153Z,32.66
2022-09-15T11:28:16.398Z,32.96
2022-09-15T11:30:52.152Z,33.41
2022-09-15T11:33:29.155Z,33.95
2022-09-15T11:36:07.792Z,34.14
2022-09-15T11:38:48.440Z,34.17
2022-09-15T11:41:56.712Z,34.30
2022-09-15T11:44:43.047Z,34.63
2022-09-15T11:47:48.376Z,34.81
2022-09-15T11:50:26.137Z,35.04
2022-09-15T11:53:18.208Z,35.15
2022-09-15T11:56:03.930Z,35.31
2022-09-15T11:58:59.110Z,35.69
2022-09-15T12:01:34.196Z,36.09
2022-09-15T12:04:08.698Z,36.41
2022-09-15T12:06:48.235Z,36.34
2022-09-15T12:09:17.938Z,36.26
2022-09-15T12:11:48.205Z,36.35
2022-09-15T12:14:37.255Z,36.46
2022-09-15T12:17:06.702Z,36.64
2022-09-15T12:19:44.115Z,36.91
2022-09-15T12:22:35.303Z,37.05
2022-09-15T12:25:24.916Z,37.05
2022-09-15T12:28:27.410Z,36.99
2022-09-15T12:31:14.661Z,36.73
2022-09-15T12:33:58.579Z,36.51
2022-09-15T12:36:38.146Z,36.57
2022-09-15T12:39:24.322Z,36.77
2022-09-15T12:42:25.227Z,36.82
2022-09-15T12:45:12.389Z,36.81
2022-09-15T12:47:42.350Z,36.89
2022-09-15T12:50:31.910Z,37.10
2022-09-15T12:53:01.536Z,37.23
2022-09-15T12:55:36.732Z,37.42
2022-09-15T12:58:10.179Z,37.72
2022-09-15T13:01:14.306Z,38.02
2022-09-15T13:04:18.818Z,38.24
2022-09-15T13:07:38.769Z,38.37
2022-09-15T13:10:36.897Z,38.13
2022-09-15T13:13:23.063Z,38.26
2022-09-15T13:15:53.565Z,38.43
2022-09-15T13:18:22.221Z,38.39
2022-09-15T13:20:55.143Z,38.37
2022-09-15T13:23:25.829Z,38.38
2022-09-15T13:25:57.478Z,38.46
2022-09-15T13:28:26.219Z,38.54
2022-09-15T13:31:34.713Z,38.62
2022-09-15T13:38:20.083Z,38.76
2022-09-15T13:41:26.498Z,38.92
2022-09-15T13:44:40.547Z,38.80
2022-09-15T13:47:49.280Z,38.70
2022-09-15T13:50:33.408Z,38.68
2022-09-15T13:53:37.361Z,38.32
2022-09-15T13:56:09.222Z,37.04
2022-09-15T14:01:25.469Z,36.17
2022-09-15T14:04:00.832Z,36.21
2022-09-15T14:06:33.931Z,36.40
2022-09-15T14:09:06.743Z,36.41
2022-09-15T14:11:37.839Z,36.19
2022-09-15T14:14:09.761Z,35.99
2022-09-15T14:16:39.390Z,35.59
2022-09-15T14:19:32.052Z,35.47
2022-09-15T14:21:59.662Z,35.73
2022-09-15T14:24:31.786Z,35.69
2022-09-15T14:27:01.434Z,35.61
2022-09-15T14:29:28.563Z,35.55
2022-09-15T14:32:01.222Z,35.38
2022-09-15T14:34:32.505Z,35.53
2022-09-15T14:37:05.697Z,35.88
2022-09-15T14:39:34.021Z,35.89
2022-09-15T14:42:18.932Z,35.81
2022-09-15T14:47:36.003Z,36.15
2022-09-15T14:50:20.119Z,36.20
2022-09-15T14:53:11.248Z,35.84
2022-09-15T14:56:02.226Z,35.69
2022-09-15T14:58:48.831Z,35.79
2022-09-15T15:01:39.933Z,35.89
2022-09-15T15:04:39.844Z,35.74
2022-09-15T15:07:20.430Z,35.32
2022-09-15T15:09:52.021Z,34.92
2022-09-15T15:12:50.564Z,34.68
2022-09-15T15:15:18.652Z,34.43
2022-09-15T15:17:51.460Z,34.12
2022-09-15T15:20:30.747Z,33.61
2022-09-15T15:23:25.568Z,33.05
2022-09-15T15:25:54.545Z,32.80
2022-09-15T15:28:36.085Z,32.71
2022-09-15T15:31:17.966Z,33.31
2022-09-15T15:34:06.854Z,34.80
2022-09-15T15:36:35.790Z,35.82
2022-09-15T15:39:06.392Z,36.11
2022-09-15T15:41:42.613Z,36.52
2022-09-15T15:44:29.218Z,36.65
2022-09-15T15:47:03.344Z,36.11
2022-09-15T15:49:33.739Z,35.09
2022-09-15T15:52:01.944Z,34.26
2022-09-15T15:54:29.593Z,33.61
2022-09-15T15:57:20.573Z,33.25
2022-09-15T15:59:47.558Z,33.43
2022-09-15T16:02:14.637Z,33.48
2022-09-15T16:04:41.579Z,33.56
2022-09-15T16:07:17.988Z,33.35
2022-09-15T16:09:46.539Z,32.81
2022-09-15T16:12:13.868Z,32.32
2022-09-15T16:14:40.808Z,31.94
2022-09-15T16:17:08.176Z,31.58
2022-09-15T16:19:35.118Z,31.32
2022-09-15T16:22:03.009Z,31.17
2022-09-15T16:24:29.970Z,31.04
2022-09-15T16:26:57.114Z,30.91
2022-09-15T16:29:28.306Z,30.77
2022-09-15T16:31:55.441Z,30.66
2022-09-15T16:34:22.847Z,30.50
2022-09-15T16:36:49.806Z,30.36
2022-09-15T16:39:16.748Z,30.24
2022-09-15T16:41:43.714Z,30.14
2022-09-15T16:44:19.590Z,30.03
2022-09-15T16:46:46.633Z,29.93
2022-09-15T16:49:13.637Z,29.81
2022-09-15T16:51:40.594Z,29.74
2022-09-15T16:54:16.160Z,29.62
2022-09-15T16:56:43.916Z,29.54
2022-09-15T16:59:10.934Z,29.50
2022-09-15T17:01:38.049Z,29.46
2022-09-15T17:04:12.848Z,29.47
2022-09-15T17:06:39.778Z,29.31
2022-09-15T17:09:07.179Z,29.19
2022-09-15T17:11:34.339Z,29.18
2022-09-15T17:14:01.320Z,29.32
2022-09-15T17:16:28.345Z,29.18
2022-09-15T17:18:55.376Z,28.89
2022-09-15T17:21:22.291Z,28.71
2022-09-15T17:23:50.375Z,28.61
2022-09-15T17:26:21.296Z,28.54
2022-09-15T17:28:49.080Z,28.44
2022-09-15T17:31:19.266Z,28.48
2022-09-15T17:33:46.563Z,28.23
2022-09-15T17:36:13.590Z,28.17
2022-09-15T17:38:45.035Z,28.08
2022-09-15T17:41:20.452Z,27.96
2022-09-15T17:43:47.748Z,27.86
2022-09-15T17:46:14.738Z,27.81
2022-09-15T17:48:41.858Z,27.78
2022-09-15T17:51:15.260Z,27.71
2022-09-15T17:53:43.293Z,27.70
2022-09-15T17:56:10.384Z,27.56
2022-09-15T17:58:37.321Z,27.45
2022-09-15T18:01:04.375Z,27.33
2022-09-15T18:03:35.129Z,27.28
2022-09-15T18:06:07.837Z,27.14
2022-09-15T18:08:36.809Z,27.11
2022-09-15T18:11:06.049Z,27.12
2022-09-15T18:13:34.227Z,27.06
2022-09-15T18:16:06.885Z,26.97
2022-09-15T18:18:34.262Z,26.85
2022-09-15T18:21:01.738Z,26.80
2022-09-15T18:23:29.730Z,26.78
2022-09-15T18:25:57.338Z,26.79
2022-09-15T18:28:24.266Z,26.82
2022-09-15T18:30:51.474Z,26.83
2022-09-15T18:33:23.978Z,26.84
2022-09-15T18:35:53.894Z,26.82
2022-09-15T18:38:21.992Z,26.78
2022-09-15T18:40:55.360Z,26.77
2022-09-15T18:43:25.343Z,26.75
2022-09-15T18:45:55.152Z,26.73
2022-09-15T18:48:22.201Z,26.70
2022-09-15T18:50:49.118Z,26.68
2022-09-15T18:53:16.061Z,26.67
2022-09-15T18:55:43.804Z,26.67
2022-09-15T18:58:11.989Z,26.66
2022-09-15T19:00:39.185Z,26.62
2022-09-15T19:03:09.618Z,26.61
2022-09-15T19:05:37.630Z,26.29
2022-09-15T19:08:04.724Z,26.06
2022-09-15T19:10:32.669Z,25.86
2022-09-15T19:12:59.611Z,25.79
2022-09-15T19:15:27.835Z,25.74
2022-09-15T19:17:54.786Z,25.74
2022-09-15T19:20:21.810Z,25.77
2022-09-15T19:22:49.055Z,25.83
2022-09-15T19:25:16.045Z,25.78
2022-09-15T19:27:43.274Z,25.72
2022-09-15T19:30:12.127Z,25.66
2022-09-15T19:32:40.477Z,25.59
2022-09-15T19:35:08.607Z,25.47
2022-09-15T19:37:38.235Z,25.38
2022-09-15T19:40:09.343Z,25.35
2022-09-15T19:42:38.279Z,25.36
2022-09-15T19:45:06.308Z,25.35
2022-09-15T19:47:33.439Z,25.37
2022-09-15T19:50:00.385Z,25.39
2022-09-15T19:52:28.491Z,25.41
2022-09-15T19:54:55.407Z,25.44
2022-09-15T19:57:22.709Z,25.46
2022-09-15T19:59:50.031Z,25.51
2022-09-15T20:02:17.422Z,25.66
2022-09-15T20:07:29.036Z,25.59
2022-09-15T20:09:55.851Z,25.51
2022-09-15T20:12:25.911Z,25.48
2022-09-15T20:14:52.804Z,25.44
2022-09-15T20:17:19.855Z,25.44
2022-09-15T20:19:46.888Z,25.47
2022-09-15T20:22:14.083Z,25.54
2022-09-15T20:24:41.016Z,25.58
2022-09-15T20:27:09.045Z,25.97
2022-09-15T20:29:36.109Z,25.58
2022-09-15T20:32:03.057Z,25.38
2022-09-15T20:34:29.949Z,25.02
2022-09-15T20:36:57.004Z,24.99
2022-09-15T20:39:24.688Z,24.69
2022-09-15T20:41:51.680Z,24.65
2022-09-15T20:44:18.625Z,24.54
2022-09-15T20:46:45.619Z,24.34
2022-09-15T20:49:12.881Z,24.37
2022-09-15T20:51:39.877Z,24.27
2022-09-15T20:54:06.875Z,24.23
2022-09-15T20:56:35.468Z,24.30
2022-09-15T20:59:04.498Z,24.15
2022-09-15T21:01:38.937Z,24.04
2022-09-15T21:04:09.037Z,24.03
2022-09-15T21:06:36.820Z,23.95
2022-09-15T21:09:04.451Z,23.86
2022-09-15T21:11:31.817Z,23.95
2022-09-15T21:13:59.065Z,23.81
2022-09-15T21:16:28.754Z,23.82
2022-09-15T21:18:57.923Z,23.78
2022-09-15T21:21:30.369Z,23.85
2022-09-15T21:24:06.216Z,23.79
2022-09-15T21:27:01.382Z,23.82
2022-09-15T21:29:29.223Z,23.86
2022-09-15T21:31:56.434Z,23.71
2022-09-15T21:34:24.059Z,23.59
2022-09-15T21:36:51.930Z,23.66
2022-09-15T21:39:18.913Z,23.65
2022-09-15T21:41:45.857Z,23.59
2022-09-15T21:44:12.865Z,23.53
2022-09-15T21:46:39.886Z,23.51
2022-09-15T21:49:06.889Z,23.71
2022-09-15T21:51:33.923Z,23.66
2022-09-15T21:54:00.979Z,23.67
2022-09-15T21:56:29.806Z,23.67
2022-09-15T21:58:56.855Z,23.58
2022-09-15T22:01:26.522Z,23.57
2022-09-15T22:03:58.851Z,23.81
2022-09-15T22:06:31.879Z,23.79
2022-09-15T22:09:05.268Z,24.09
2022-09-15T22:11:32.801Z,24.09
2022-09-15T22:14:02.073Z,24.12
2022-09-15T22:16:29.476Z,24.19
2022-09-15T22:18:56.749Z,24.11
2022-09-15T22:21:26.663Z,23.98
2022-09-15T22:23:57.951Z,24.10
2022-09-15T22:26:27.782Z,24.01
2022-09-15T22:28:55.312Z,24.06
2022-09-15T22:31:24.273Z,23.83
2022-09-15T22:33:51.663Z,23.96
2022-09-15T22:36:28.605Z,23.89
2022-09-15T22:38:57.832Z,23.61
2022-09-15T22:41:26.047Z,23.64
2022-09-15T22:43:53.064Z,23.70
2022-09-15T22:46:20.291Z,23.46
2022-09-15T22:48:47.289Z,23.47
2022-09-15T22:51:15.083Z,23.70
2022-09-15T22:53:42.636Z,23.44
2022-09-15T22:56:17.253Z,23.40
2022-09-15T22:58:44.662Z,23.58
2022-09-15T23:01:15.037Z,23.52
2022-09-15T23:03:42.396Z,23.55
2022-09-15T23:06:09.521Z,23.57
2022-09-15T23:08:36.939Z,23.59
2022-09-15T23:11:09.843Z,23.54
2022-09-15T23:13:37.088Z,23.53
2022-09-15T23:16:06.919Z,23.55
2022-09-15T23:18:34.984Z,23.53
2022-09-15T23:21:07.540Z,23.52
2022-09-15T23:23:36.323Z,23.48
2022-09-15T23:26:05.596Z,23.38
2022-09-15T23:28:33.101Z,23.34
2022-09-15T23:31:00.451Z,23.34
2022-09-15T23:33:29.100Z,23.42
2022-09-15T23:35:58.573Z,23.51
2022-09-15T23:38:25.733Z,23.58
2022-09-15T23:40:52.663Z,23.73
2022-09-15T23:43:19.862Z,23.80
2022-09-15T23:45:47.438Z,23.84
2022-09-15T23:48:14.952Z,23.91
2022-09-15T23:50:42.358Z,23.96
2022-09-15T23:53:09.781Z,24.04
2022-09-15T23:55:36.706Z,24.05
2022-09-15T23:58:04.929Z,24.06
